createdAt,value
2023-02-11T00:01:35.597Z,36.90
2023-02-11T00:04:05.790Z,36.05
2023-02-11T00:06:35.617Z,33.58
2023-02-11T00:09:04.799Z,34.85
2023-02-11T00:11:32.557Z,30.05
2023-02-11T00:14:03.451Z,30.77
2023-02-11T00:16:32.343Z,34.43
2023-02-11T00:19:01.998Z,32.03
2023-02-11T00:21:29.952Z,27.73
2023-02-11T00:23:59.862Z,28.63
2023-02-11T00:26:35.242Z,28.20
2023-02-11T00:29:04.643Z,27.88
2023-02-11T00:31:33.176Z,29.95
2023-02-11T00:34:00.918Z,27.60
2023-02-11T00:36:30.129Z,27.85
2023-02-11T00:38:59.881Z,26.08
2023-02-11T00:41:29.552Z,30.15
2023-02-11T00:44:01.742Z,32.17
2023-02-11T00:46:30.520Z,28.27
2023-02-11T00:48:58.110Z,27.10
2023-02-11T00:51:28.618Z,25.52
2023-02-11T00:53:59.071Z,26.80
2023-02-11T00:56:28.006Z,26.50
2023-02-11T00:58:57.079Z,23.75
2023-02-11T01:01:25.298Z,39.80
2023-02-11T01:03:53.064Z,23.83
2023-02-11T01:06:23.349Z,25.23
2023-02-11T01:08:50.953Z,23.85
2023-02-11T01:11:21.583Z,26.83
2023-02-11T01:13:50.360Z,27.60
2023-02-11T01:16:20.173Z,25.40
2023-02-11T01:18:48.058Z,23.48
2023-02-11T01:21:19.156Z,24.38
2023-02-11T01:23:46.885Z,23.52
2023-02-11T01:26:14.403Z,23.67
2023-02-11T01:28:44.509Z,28.08
2023-02-11T01:31:12.136Z,27.30
2023-02-11T01:33:40.275Z,24.63
2023-02-11T01:36:12.745Z,22.85
2023-02-11T01:38:40.989Z,27.00
2023-02-11T01:41:13.349Z,22.88
2023-02-11T01:43:49.735Z,27.23
2023-02-11T01:46:38.646Z,23.15
2023-02-11T01:49:12.610Z,26.67
2023-02-11T01:51:46.875Z,22.02
2023-02-11T01:54:43.810Z,22.13
2023-02-11T01:57:27.361Z,25.02
2023-02-11T02:00:01.982Z,22.20
2023-02-11T02:03:00.463Z,26.15
2023-02-11T02:05:53.083Z,26.33
2023-02-11T02:08:51.064Z,23.63
2023-02-11T02:11:18.681Z,20.80
2023-02-11T02:13:46.435Z,26.15
2023-02-11T02:16:19.688Z,22.30
2023-02-11T02:19:19.637Z,28.52
2023-02-11T02:22:10.489Z,27.40
2023-02-11T02:25:15.066Z,23.77
2023-02-11T02:28:13.344Z,18.55
2023-02-11T02:31:17.844Z,19.13
2023-02-11T02:34:09.569Z,24.73
2023-02-11T02:37:15.135Z,24.60
2023-02-11T02:39:48.501Z,23.60
2023-02-11T02:42:18.652Z,25.70
2023-02-11T02:44:55.817Z,25.80
2023-02-11T02:47:23.407Z,26.27
2023-02-11T02:49:52.202Z,24.08
2023-02-11T02:52:53.838Z,23.30
2023-02-11T02:55:51.654Z,23.85
2023-02-11T02:58:34.955Z,23.90
2023-02-11T03:01:57.766Z,25.88
2023-02-11T03:05:02.828Z,26.02
2023-02-11T03:07:56.986Z,26.27
2023-02-11T03:10:33.063Z,26.35
2023-02-11T03:13:03.741Z,25.98
2023-02-11T03:15:40.663Z,25.50
2023-02-11T03:18:13.616Z,30.65
2023-02-11T03:20:45.625Z,24.33
2023-02-11T03:23:29.008Z,28.83
2023-02-11T03:26:05.594Z,23.17
2023-02-11T03:29:05.006Z,26.92
2023-02-11T03:32:17.654Z,23.50
2023-02-11T03:35:01.437Z,22.08
2023-02-11T03:37:50.722Z,23.38
2023-02-11T03:40:27.411Z,20.02
2023-02-11T03:43:01.112Z,24.75
2023-02-11T03:45:30.484Z,24.45
2023-02-11T03:48:06.171Z,25.92
2023-02-11T03:50:36.968Z,25.42
2023-02-11T03:53:06.349Z,23.77
2023-02-11T03:55:39.888Z,23.95
2023-02-11T03:58:09.095Z,26.10
2023-02-11T04:00:41.141Z,21.58
2023-02-11T04:03:10.993Z,28.30
2023-02-11T04:05:38.978Z,23.45
2023-02-11T04:08:07.058Z,24.40
2023-02-11T04:10:34.926Z,23.60
2023-02-11T04:13:02.415Z,26.05
2023-02-11T04:15:30.220Z,25.70
2023-02-11T04:17:57.917Z,21.52
2023-02-11T04:20:25.482Z,27.65
2023-02-11T04:22:53.220Z,21.67
2023-02-11T04:25:21.212Z,24.02
2023-02-11T04:27:48.697Z,30.25
2023-02-11T04:30:16.441Z,24.23
2023-02-11T04:32:43.980Z,23.02
2023-02-11T04:35:11.616Z,22.63
2023-02-11T04:37:39.465Z,21.55
2023-02-11T04:40:07.791Z,20.27
2023-02-11T04:42:35.321Z,27.27
2023-02-11T04:45:03.491Z,23.80
2023-02-11T04:47:31.044Z,24.15
2023-02-11T04:49:58.603Z,24.48
2023-02-11T04:52:26.310Z,19.67
2023-02-11T04:54:53.818Z,25.25
2023-02-11T04:57:21.325Z,21.90
2023-02-11T04:59:49.080Z,21.73
2023-02-11T05:02:16.717Z,25.48
2023-02-11T05:04:44.209Z,23.77
2023-02-11T05:07:11.870Z,28.42
2023-02-11T05:09:39.346Z,24.33
2023-02-11T05:12:07.060Z,25.63
2023-02-11T05:14:34.772Z,27.17
2023-02-11T05:17:02.400Z,27.38
2023-02-11T05:19:31.983Z,27.65
2023-02-11T05:22:03.033Z,25.90
2023-02-11T05:24:34.982Z,23.25
2023-02-11T05:27:02.571Z,28.83
2023-02-11T05:29:30.133Z,23.20
2023-02-11T05:31:59.621Z,25.23
2023-02-11T05:34:27.309Z,22.23
2023-02-11T05:36:55.187Z,25.67
2023-02-11T05:39:22.727Z,23.73
2023-02-11T05:41:50.386Z,31.48
2023-02-11T05:44:18.107Z,27.13
2023-02-11T05:46:45.765Z,28.15
2023-02-11T05:49:13.281Z,26.08
2023-02-11T05:51:41.138Z,26.92
2023-02-11T05:54:08.700Z,30.58
2023-02-11T05:56:36.183Z,28.38
2023-02-11T05:59:04.089Z,27.58
2023-02-11T06:01:31.665Z,26.23
2023-02-11T06:03:59.347Z,26.85
2023-02-11T06:06:26.996Z,24.55
2023-02-11T06:08:54.639Z,30.67
2023-02-11T06:11:22.448Z,27.40
2023-02-11T06:13:50.071Z,25.95
2023-02-11T06:16:17.903Z,28.90
2023-02-11T06:18:45.430Z,27.70
2023-02-11T06:21:13.055Z,27.23
2023-02-11T06:23:40.579Z,29.67
2023-02-11T06:26:15.589Z,34.70
2023-02-11T06:28:44.314Z,28.77
2023-02-11T06:31:14.661Z,28.27
2023-02-11T06:33:42.375Z,31.23
2023-02-11T06:36:18.234Z,29.25
2023-02-11T06:38:46.695Z,27.23
2023-02-11T06:41:17.586Z,31.15
2023-02-11T06:43:45.138Z,29.65
2023-02-11T06:46:12.825Z,32.67
2023-02-11T06:48:43.066Z,32.17
2023-02-11T06:53:45.067Z,30.17
2023-02-11T06:58:43.872Z,30.30
2023-02-11T07:01:16.021Z,31.05
2023-02-11T07:03:46.690Z,34.30
2023-02-11T07:06:22.425Z,30.43
2023-02-11T07:08:50.579Z,33.85
2023-02-11T07:11:24.427Z,32.33
2023-02-11T07:13:55.320Z,33.80
2023-02-11T07:16:23.714Z,32.53
2023-02-11T07:18:51.851Z,34.85
2023-02-11T07:21:24.315Z,34.33
2023-02-11T07:23:52.697Z,34.92
2023-02-11T07:26:23.543Z,38.85
2023-02-11T07:28:53.100Z,35.70
2023-02-11T07:31:26.757Z,34.92
2023-02-11T07:33:59.170Z,35.90
2023-02-11T07:36:29.350Z,37.45
2023-02-11T07:38:57.387Z,42.15
2023-02-11T07:41:26.400Z,41.15
2023-02-11T07:43:54.980Z,38.08
2023-02-11T07:46:28.178Z,42.22
2023-02-11T07:48:56.341Z,37.30
2023-02-11T07:51:30.371Z,39.53
2023-02-11T07:54:00.562Z,41.05
2023-02-11T07:56:29.671Z,42.90
2023-02-11T07:59:02.446Z,39.58
2023-02-11T08:01:30.940Z,42.63
2023-02-11T08:04:01.487Z,40.10
2023-02-11T08:06:34.634Z,43.60
2023-02-11T08:09:08.908Z,41.80
2023-02-11T08:11:36.742Z,40.85
2023-02-11T08:14:04.521Z,43.45
2023-02-11T08:16:35.323Z,43.92
2023-02-11T08:19:07.746Z,40.20
2023-02-11T08:21:35.559Z,48.08
2023-02-11T08:24:03.900Z,42.25
2023-02-11T08:26:35.201Z,48.00
2023-02-11T08:29:10.420Z,44.80
2023-02-11T08:31:42.562Z,48.20
2023-02-11T08:34:11.984Z,47.05
2023-02-11T08:36:42.416Z,50.92
2023-02-11T08:39:20.232Z,44.15
2023-02-11T08:41:52.312Z,48.75
2023-02-11T08:46:50.206Z,54.20
2023-02-11T08:49:17.960Z,51.13
2023-02-11T08:51:46.861Z,44.88
2023-02-11T08:54:15.783Z,47.72
2023-02-11T08:56:44.087Z,43.90
2023-02-11T08:59:15.422Z,49.83
2023-02-11T09:01:44.271Z,52.70
2023-02-11T09:04:11.995Z,52.63
2023-02-11T09:06:40.138Z,49.45
2023-02-11T09:09:13.650Z,47.10
2023-02-11T09:11:44.054Z,46.22
2023-02-11T09:14:21.738Z,59.28
2023-02-11T09:16:51.496Z,52.15
2023-02-11T09:19:19.933Z,57.05
2023-02-11T09:21:47.788Z,55.15
2023-02-11T09:24:15.775Z,52.45
2023-02-11T09:26:44.046Z,54.97
2023-02-11T09:29:12.901Z,51.10
2023-02-11T09:31:41.142Z,48.70
2023-02-11T09:34:08.884Z,54.55
2023-02-11T09:36:39.632Z,59.17
2023-02-11T09:39:17.126Z,50.07
2023-02-11T09:42:20.251Z,56.40
2023-02-11T09:44:47.932Z,50.38
2023-02-11T09:47:33.106Z,46.05
2023-02-11T09:50:07.296Z,52.58
2023-02-11T09:52:47.609Z,53.35
2023-02-11T09:55:47.521Z,51.00
2023-02-11T09:58:24.780Z,47.10
2023-02-11T10:01:41.506Z,47.03
2023-02-11T10:04:18.242Z,55.92
2023-02-11T10:06:53.000Z,52.45
2023-02-11T10:10:03.649Z,50.15
2023-02-11T10:13:10.595Z,50.83
2023-02-11T10:15:48.803Z,48.25
2023-02-11T10:18:29.386Z,54.17
2023-02-11T10:21:24.509Z,52.17
2023-02-11T10:23:57.351Z,48.35
2023-02-11T10:26:30.963Z,51.78
2023-02-11T10:29:14.050Z,46.65
2023-02-11T10:31:45.008Z,50.88
2023-02-11T10:34:14.924Z,57.85
2023-02-11T10:36:45.018Z,52.88
2023-02-11T10:39:20.726Z,53.17
2023-02-11T10:41:57.611Z,50.28
2023-02-11T10:45:17.785Z,52.90
2023-02-11T10:47:45.596Z,47.58
2023-02-11T10:50:35.251Z,52.78
2023-02-11T10:53:20.761Z,52.95
2023-02-11T10:55:53.938Z,50.58
2023-02-11T10:58:35.900Z,47.65
2023-02-11T11:03:50.061Z,49.35
2023-02-11T11:06:32.454Z,50.90
2023-02-11T11:09:01.119Z,48.22
2023-02-11T11:11:28.812Z,52.92
2023-02-11T11:14:01.223Z,50.47
2023-02-11T11:16:36.094Z,55.75
2023-02-11T11:19:06.608Z,52.40
2023-02-11T11:21:55.849Z,52.28
2023-02-11T11:24:35.316Z,49.90
2023-02-11T11:27:05.371Z,54.80
2023-02-11T11:29:50.413Z,51.45
2023-02-11T11:32:28.336Z,53.88
2023-02-11T11:35:01.209Z,50.80
2023-02-11T11:37:33.161Z,55.13
2023-02-11T11:40:15.523Z,52.60
2023-02-11T11:42:43.798Z,49.33
2023-02-11T11:45:19.914Z,52.58
2023-02-11T11:48:09.673Z,48.65
2023-02-11T11:50:47.640Z,46.25
2023-02-11T11:53:23.608Z,48.63
2023-02-11T11:55:59.855Z,51.60
2023-02-11T11:58:30.159Z,46.45
2023-02-11T12:01:22.855Z,50.15
2023-02-11T12:05:01.429Z,46.22
2023-02-11T12:08:28.139Z,51.58
2023-02-11T12:11:10.674Z,48.47
2023-02-11T12:14:27.426Z,44.50
2023-02-11T12:17:50.959Z,45.72
2023-02-11T12:20:43.617Z,44.38
2023-02-11T12:23:38.710Z,44.90
2023-02-11T12:26:23.463Z,44.65
2023-02-11T12:29:57.851Z,40.35
2023-02-11T12:32:51.336Z,38.90
2023-02-11T12:36:14.121Z,39.30
2023-02-11T12:39:16.133Z,37.10
2023-02-11T12:42:29.534Z,36.58
2023-02-11T12:45:27.471Z,35.85
2023-02-11T12:48:10.567Z,37.78
2023-02-11T12:51:05.898Z,37.88
2023-02-11T12:54:08.104Z,37.05
2023-02-11T12:57:18.490Z,34.67
2023-02-11T13:00:00.701Z,35.90
2023-02-11T13:02:49.377Z,34.70
2023-02-11T13:05:58.787Z,30.83
2023-02-11T13:08:31.456Z,31.02
2023-02-11T13:11:29.750Z,30.52
2023-02-11T13:14:19.350Z,30.05
2023-02-11T13:16:50.778Z,28.58
2023-02-11T13:19:33.041Z,32.08
2023-02-11T13:22:43.610Z,25.73
2023-02-11T13:25:36.317Z,26.60
2023-02-11T13:28:47.786Z,28.25
2023-02-11T13:31:16.773Z,29.15
2023-02-11T13:33:45.790Z,22.05
2023-02-11T13:36:27.750Z,25.67
2023-02-11T13:39:21.424Z,24.33
2023-02-11T13:41:52.254Z,24.20
2023-02-11T13:44:26.587Z,24.38
2023-02-11T13:47:07.173Z,23.55
2023-02-11T13:49:52.221Z,23.40
2023-02-11T13:52:27.475Z,26.75
2023-02-11T13:55:12.198Z,25.98
2023-02-11T13:57:41.902Z,24.38
2023-02-11T14:00:34.680Z,25.60
2023-02-11T14:03:30.296Z,30.25
2023-02-11T14:06:30.611Z,29.45
2023-02-11T14:09:22.346Z,27.25
2023-02-11T14:11:55.339Z,31.27
2023-02-11T14:14:28.900Z,28.05
2023-02-11T14:16:59.796Z,30.40
2023-02-11T14:19:43.868Z,32.93
2023-02-11T14:22:25.976Z,31.08
2023-02-11T14:25:04.674Z,30.70
2023-02-11T14:27:51.484Z,28.42
2023-02-11T14:30:46.517Z,27.70
2023-02-11T14:34:06.924Z,27.73
2023-02-11T14:36:52.854Z,29.73
2023-02-11T14:39:23.148Z,28.50
2023-02-11T14:41:51.669Z,28.25
2023-02-11T14:44:27.439Z,26.73
2023-02-11T14:46:56.160Z,29.00
2023-02-11T14:49:31.195Z,30.80
2023-02-11T14:52:27.597Z,31.95
2023-02-11T14:55:09.085Z,30.25
2023-02-11T14:57:37.961Z,28.63
2023-02-11T15:00:19.130Z,29.23
2023-02-11T15:02:47.078Z,25.75
2023-02-11T15:05:19.369Z,28.52
2023-02-11T15:08:00.736Z,27.08
2023-02-11T15:10:43.938Z,26.90
2023-02-11T15:13:21.630Z,27.15
2023-02-11T15:15:55.900Z,30.05
2023-02-11T15:18:33.943Z,27.20
2023-02-11T15:21:01.978Z,29.88
2023-02-11T15:23:31.723Z,28.65
2023-02-11T15:26:04.631Z,27.58
2023-02-11T15:28:35.447Z,28.38
2023-02-11T15:31:17.838Z,26.35
2023-02-11T15:33:46.919Z,29.35
2023-02-11T15:36:17.669Z,30.50
2023-02-11T15:38:45.263Z,26.03
2023-02-11T15:41:38.431Z,25.58
2023-02-11T15:44:05.946Z,26.80
2023-02-11T15:46:39.797Z,23.02
2023-02-11T15:49:19.222Z,23.20
2023-02-11T15:51:47.602Z,24.65
2023-02-11T15:54:22.192Z,21.88
2023-02-11T15:56:55.456Z,26.30
2023-02-11T15:59:52.210Z,22.98
2023-02-11T16:02:25.650Z,23.13
2023-02-11T16:05:06.069Z,23.10
2023-02-11T16:07:49.812Z,21.40
2023-02-11T16:10:36.093Z,22.13
2023-02-11T16:13:06.442Z,25.02
2023-02-11T16:15:33.874Z,23.67
2023-02-11T16:18:12.683Z,24.85
2023-02-11T16:20:40.886Z,23.02
2023-02-11T16:23:08.583Z,24.92
2023-02-11T16:25:37.424Z,24.85
2023-02-11T16:28:05.457Z,24.02
2023-02-11T16:30:40.527Z,25.52
2023-02-11T16:33:11.298Z,27.15
2023-02-11T16:35:39.048Z,23.92
2023-02-11T16:38:06.525Z,25.60
2023-02-11T16:40:35.685Z,24.10
2023-02-11T16:43:03.152Z,27.33
2023-02-11T16:45:31.750Z,27.75
2023-02-11T16:48:00.130Z,25.10
2023-02-11T16:50:28.344Z,23.73
2023-02-11T16:52:55.883Z,27.10
2023-02-11T16:55:23.449Z,25.55
2023-02-11T16:57:51.149Z,27.27
2023-02-11T17:00:21.032Z,25.52
2023-02-11T17:02:48.840Z,26.67
2023-02-11T17:05:23.066Z,26.10
2023-02-11T17:07:51.916Z,26.35
2023-02-11T17:10:23.554Z,27.60
2023-02-11T17:15:20.234Z,32.42
2023-02-11T17:17:48.169Z,31.52
2023-02-11T17:20:16.382Z,29.65
2023-02-11T17:22:43.886Z,28.85
2023-02-11T17:25:11.837Z,28.38
2023-02-11T17:27:39.550Z,33.25
2023-02-11T17:30:08.689Z,31.85
2023-02-11T17:32:37.425Z,34.70
2023-02-11T17:35:08.317Z,30.00
2023-02-11T17:37:35.841Z,32.27
2023-02-11T17:40:03.894Z,31.38
2023-02-11T17:42:31.413Z,35.03
2023-02-11T17:44:59.132Z,36.60
2023-02-11T17:47:26.703Z,38.10
2023-02-11T17:49:54.290Z,36.45
2023-02-11T17:52:21.861Z,40.03
2023-02-11T17:54:49.878Z,39.05
2023-02-11T17:57:17.631Z,36.50
2023-02-11T17:59:45.343Z,37.72
2023-02-11T18:02:13.134Z,40.47
2023-02-11T18:04:40.804Z,39.47
2023-02-11T18:07:08.390Z,44.90
2023-02-11T18:09:40.407Z,33.47
2023-02-11T18:12:08.903Z,36.63
2023-02-11T18:14:40.419Z,36.88
2023-02-11T18:17:08.173Z,35.33
2023-02-11T18:19:36.629Z,37.65
2023-02-11T18:22:04.460Z,39.20
2023-02-11T18:24:32.074Z,37.22
2023-02-11T18:26:59.699Z,40.28
2023-02-11T18:29:27.758Z,37.10
2023-02-11T18:31:57.627Z,41.45
2023-02-11T18:34:25.935Z,41.47
2023-02-11T18:36:54.218Z,36.55
2023-02-11T18:39:24.252Z,42.55
2023-02-11T18:41:56.776Z,40.50
2023-02-11T18:44:25.803Z,39.03
2023-02-11T18:46:54.196Z,39.63
2023-02-11T18:49:21.802Z,41.70
2023-02-11T18:51:49.537Z,40.97
2023-02-11T18:54:17.066Z,40.40
2023-02-11T18:56:44.986Z,38.10
2023-02-11T18:59:12.739Z,41.38
2023-02-11T19:01:43.262Z,41.45
2023-02-11T19:04:11.427Z,39.35
2023-02-11T19:06:39.339Z,44.90
2023-02-11T19:09:15.450Z,43.03
2023-02-11T19:11:53.872Z,44.80
2023-02-11T19:14:28.718Z,37.70
2023-02-11T19:17:00.486Z,38.88
2023-02-11T19:19:32.392Z,40.28
2023-02-11T19:22:02.438Z,38.55
2023-02-11T19:24:30.837Z,40.50
2023-02-11T19:27:03.214Z,41.67
2023-02-11T19:29:35.282Z,39.10
2023-02-11T19:32:08.501Z,44.00
2023-02-11T19:34:41.406Z,38.28
2023-02-11T19:37:12.693Z,40.00
2023-02-11T19:39:42.714Z,40.72
2023-02-11T19:42:10.728Z,40.95
2023-02-11T19:44:38.625Z,39.92
2023-02-11T19:47:06.910Z,45.40
2023-02-11T19:49:34.588Z,43.40
2023-02-11T19:52:02.294Z,43.00
2023-02-11T19:54:29.799Z,41.05
2023-02-11T19:56:58.046Z,42.85
2023-02-11T19:59:25.763Z,41.38
2023-02-11T20:01:53.905Z,41.35
2023-02-11T20:04:21.568Z,44.58
2023-02-11T20:06:49.525Z,42.05
2023-02-11T20:09:17.079Z,44.28
2023-02-11T20:11:45.001Z,42.95
2023-02-11T20:14:15.220Z,46.75
2023-02-11T20:16:49.253Z,38.75
2023-02-11T20:19:22.014Z,44.58
2023-02-11T20:21:53.332Z,44.92
2023-02-11T20:24:22.082Z,40.70
2023-02-11T20:26:51.636Z,42.28
2023-02-11T20:29:19.348Z,39.53
2023-02-11T20:31:48.962Z,45.45
2023-02-11T20:34:18.184Z,42.17
2023-02-11T20:36:51.793Z,39.83
2023-02-11T20:39:23.526Z,37.63
2023-02-11T20:41:53.674Z,43.55
2023-02-11T20:44:22.639Z,38.47
2023-02-11T20:46:54.143Z,42.42
2023-02-11T20:51:53.585Z,41.03
2023-02-11T20:54:23.226Z,41.25
2023-02-11T20:56:53.623Z,40.10
2023-02-11T20:59:21.815Z,39.17
2023-02-11T21:01:54.100Z,39.60
2023-02-11T21:04:29.779Z,42.58
2023-02-11T21:07:01.394Z,39.47
2023-02-11T21:09:32.501Z,41.33
2023-02-11T21:12:00.824Z,43.60
2023-02-11T21:14:29.413Z,48.60
2023-02-11T21:16:57.619Z,51.10
2023-02-11T21:19:25.233Z,43.17
2023-02-11T21:21:54.782Z,40.80
2023-02-11T21:24:22.952Z,40.17
2023-02-11T21:26:50.478Z,43.53
2023-02-11T21:29:18.075Z,42.53
2023-02-11T21:31:46.241Z,42.55
2023-02-11T21:34:15.787Z,42.20
2023-02-11T21:36:45.317Z,39.75
2023-02-11T21:39:14.513Z,44.45
2023-02-11T21:41:41.953Z,38.83
2023-02-11T21:44:09.549Z,38.90
2023-02-11T21:46:37.350Z,40.05
2023-02-11T21:49:05.065Z,36.08
2023-02-11T21:51:32.539Z,39.10
2023-02-11T21:54:02.686Z,43.30
2023-02-11T21:56:33.884Z,40.88
2023-02-11T21:59:02.025Z,43.60
2023-02-11T22:01:35.305Z,42.25
2023-02-11T22:04:04.315Z,40.25
2023-02-11T22:06:34.601Z,41.53
2023-02-11T22:09:07.077Z,37.20
2023-02-11T22:11:35.394Z,40.35
2023-02-11T22:14:03.536Z,38.63
2023-02-11T22:16:31.680Z,36.75
2023-02-11T22:18:59.407Z,38.78
2023-02-11T22:21:27.056Z,37.58
2023-02-11T22:23:56.062Z,37.10
2023-02-11T22:26:27.125Z,39.22
2023-02-11T22:28:55.967Z,38.53
2023-02-11T22:31:30.519Z,37.78
2023-02-11T22:34:00.237Z,38.40
2023-02-11T22:36:35.650Z,37.00
2023-02-11T22:39:08.297Z,36.72
2023-02-11T22:41:38.162Z,40.25
2023-02-11T22:44:05.739Z,37.88
2023-02-11T22:46:33.449Z,37.65
2023-02-11T22:49:00.983Z,38.35
2023-02-11T22:51:30.448Z,38.60
2023-02-11T22:54:05.985Z,38.72
2023-02-11T22:56:35.033Z,38.65
2023-02-11T22:59:08.352Z,39.20
2023-02-11T23:01:35.971Z,38.97
2023-02-11T23:04:06.629Z,37.15
2023-02-11T23:06:35.134Z,35.05
2023-02-11T23:09:09.889Z,34.17
2023-02-11T23:11:38.016Z,36.10
2023-02-11T23:14:05.657Z,39.42
2023-02-11T23:16:34.787Z,34.05
2023-02-11T23:19:09.272Z,37.47
2023-02-11T23:21:39.316Z,32.63
2023-02-11T23:24:14.951Z,32.67
2023-02-11T23:26:44.167Z,30.95
2023-02-11T23:29:12.543Z,33.78
2023-02-11T23:31:45.227Z,29.70
2023-02-11T23:34:20.291Z,30.02
2023-02-11T23:36:48.033Z,31.08
2023-02-11T23:39:16.968Z,29.38
2023-02-11T23:41:45.728Z,27.70
2023-02-11T23:44:13.286Z,30.42
2023-02-11T23:46:40.856Z,28.15
2023-02-11T23:49:08.847Z,29.63
2023-02-11T23:51:36.480Z,27.08
2023-02-11T23:54:04.263Z,29.83
2023-02-11T23:56:32.291Z,28.13
2023-02-11T23:58:59.842Z,28.65
